Blountstown, Florida
Current Conditions -  °F | °C
As of 9:53 AM on Wednesday 28 Jan 2015 (Local Time) from KMAI Reporting Station
Clear Clear  
Wind Chill: 42°   Ceiling: Unl
Heat Index: 46°   Visibility: 10mi
Dew Point: 33°   Wind: 7mph
Humidity: 61%   Direction: 40°NE
Pressure: 30.3"   Gusts: NA
Location:  30.44°N, 85.05°W
Report Text: KMAI 281553Z AUTO 04006KT 10SM CLR 08/01 A3030 RMK AO2 SLP262 T00780006
Loading
Personal Weather Stations






























Interactive Weather Map New forecast layout! Learn more

10-Day Weather Forecast

Advertisements
Track Severe Weather on mobile